sensor_id;sensor_type;location;lat;lon;timestamp;P1;durP1;ratioP1;P2;durP2;ratioP2
18532;SDS011;9396;51.510;11.934;2022-10-22T00:00:21;4.87;;;4.37;;
18532;SDS011;9396;51.510;11.934;2022-10-22T00:02:48;4.77;;;4.17;;
18532;SDS011;9396;51.510;11.934;2022-10-22T00:05:15;4.50;;;4.03;;
18532;SDS011;9396;51.510;11.934;2022-10-22T00:07:42;3.80;;;3.43;;
18532;SDS011;9396;51.510;11.934;2022-10-22T00:10:10;4.87;;;4.23;;
18532;SDS011;9396;51.510;11.934;2022-10-22T00:12:37;6.47;;;3.90;;
18532;SDS011;9396;51.510;11.934;2022-10-22T00:15:04;5.10;;;3.93;;
18532;SDS011;9396;51.510;11.934;2022-10-22T00:17:32;5.17;;;4.13;;
18532;SDS011;9396;51.510;11.934;2022-10-22T00:20:00;5.70;;;4.53;;
18532;SDS011;9396;51.510;11.934;2022-10-22T00:22:27;8.07;;;4.20;;
18532;SDS011;9396;51.510;11.934;2022-10-22T00:24:53;4.70;;;4.07;;
18532;SDS011;9396;51.510;11.934;2022-10-22T00:27:21;3.57;;;3.13;;
18532;SDS011;9396;51.510;11.934;2022-10-22T00:29:48;3.80;;;3.50;;
18532;SDS011;9396;51.510;11.934;2022-10-22T00:32:14;4.47;;;3.97;;
18532;SDS011;9396;51.510;11.934;2022-10-22T00:34:41;8.43;;;3.70;;
18532;SDS011;9396;51.510;11.934;2022-10-22T00:37:08;4.47;;;3.77;;
18532;SDS011;9396;51.510;11.934;2022-10-22T00:39:35;5.83;;;4.10;;
18532;SDS011;9396;51.510;11.934;2022-10-22T00:42:01;4.83;;;4.30;;
18532;SDS011;9396;51.510;11.934;2022-10-22T00:47:30;5.03;;;4.30;;
18532;SDS011;9396;51.510;11.934;2022-10-22T00:49:59;5.07;;;4.57;;
18532;SDS011;9396;51.510;11.934;2022-10-22T00:52:26;4.83;;;4.13;;
18532;SDS011;9396;51.510;11.934;2022-10-22T00:54:54;7.27;;;4.60;;
18532;SDS011;9396;51.510;11.934;2022-10-22T00:57:21;6.03;;;4.40;;
18532;SDS011;9396;51.510;11.934;2022-10-22T00:59:48;5.87;;;4.83;;
18532;SDS011;9396;51.510;11.934;2022-10-22T01:02:16;5.73;;;4.27;;
18532;SDS011;9396;51.510;11.934;2022-10-22T01:04:43;5.53;;;4.27;;
18532;SDS011;9396;51.510;11.934;2022-10-22T01:07:11;7.60;;;4.73;;
18532;SDS011;9396;51.510;11.934;2022-10-22T01:09:43;4.70;;;4.30;;
18532;SDS011;9396;51.510;11.934;2022-10-22T01:12:20;8.03;;;4.80;;
18532;SDS011;9396;51.510;11.934;2022-10-22T01:14:57;4.93;;;4.23;;
18532;SDS011;9396;51.510;11.934;2022-10-22T01:17:35;6.17;;;4.60;;
18532;SDS011;9396;51.510;11.934;2022-10-22T01:20:12;5.27;;;4.33;;
18532;SDS011;9396;51.510;11.934;2022-10-22T01:22:58;4.83;;;4.30;;
18532;SDS011;9396;51.510;11.934;2022-10-22T01:25:33;5.47;;;4.27;;
18532;SDS011;9396;51.510;11.934;2022-10-22T01:28:05;4.83;;;4.07;;
18532;SDS011;9396;51.510;11.934;2022-10-22T01:30:42;4.83;;;4.17;;
18532;SDS011;9396;51.510;11.934;2022-10-22T01:33:12;6.07;;;4.33;;
18532;SDS011;9396;51.510;11.934;2022-10-22T01:35:43;5.27;;;4.00;;
18532;SDS011;9396;51.510;11.934;2022-10-22T01:38:11;4.80;;;4.10;;
18532;SDS011;9396;51.510;11.934;2022-10-22T01:40:42;4.53;;;4.13;;
18532;SDS011;9396;51.510;11.934;2022-10-22T01:43:09;7.77;;;5.07;;
18532;SDS011;9396;51.510;11.934;2022-10-22T01:45:37;5.83;;;4.50;;
18532;SDS011;9396;51.510;11.934;2022-10-22T01:48:11;5.53;;;4.47;;
18532;SDS011;9396;51.510;11.934;2022-10-22T01:53:44;4.67;;;4.10;;
18532;SDS011;9396;51.510;11.934;2022-10-22T01:56:21;6.17;;;4.73;;
18532;SDS011;9396;51.510;11.934;2022-10-22T01:58:59;5.83;;;4.83;;
18532;SDS011;9396;51.510;11.934;2022-10-22T02:01:32;6.83;;;4.83;;
18532;SDS011;9396;51.510;11.934;2022-10-22T02:04:10;8.07;;;4.80;;
18532;SDS011;9396;51.510;11.934;2022-10-22T02:06:42;7.90;;;5.67;;
18532;SDS011;9396;51.510;11.934;2022-10-22T02:09:13;7.17;;;5.03;;
18532;SDS011;9396;51.510;11.934;2022-10-22T02:11:42;5.80;;;5.03;;
18532;SDS011;9396;51.510;11.934;2022-10-22T02:14:10;7.70;;;5.17;;
18532;SDS011;9396;51.510;11.934;2022-10-22T02:16:38;5.23;;;4.73;;
18532;SDS011;9396;51.510;11.934;2022-10-22T02:19:09;5.57;;;4.90;;
18532;SDS011;9396;51.510;11.934;2022-10-22T02:21:41;6.40;;;4.73;;
18532;SDS011;9396;51.510;11.934;2022-10-22T02:24:08;11.37;;;5.13;;
18532;SDS011;9396;51.510;11.934;2022-10-22T02:26:37;5.00;;;4.50;;
18532;SDS011;9396;51.510;11.934;2022-10-22T02:29:10;5.53;;;4.30;;
18532;SDS011;9396;51.510;11.934;2022-10-22T02:31:39;4.97;;;4.37;;
18532;SDS011;9396;51.510;11.934;2022-10-22T02:34:12;5.13;;;4.63;;
18532;SDS011;9396;51.510;11.934;2022-10-22T02:36:43;4.97;;;4.47;;
18532;SDS011;9396;51.510;11.934;2022-10-22T02:39:12;4.90;;;4.40;;
18532;SDS011;9396;51.510;11.934;2022-10-22T02:41:40;5.20;;;4.70;;
18532;SDS011;9396;51.510;11.934;2022-10-22T02:44:08;5.07;;;4.57;;
18532;SDS011;9396;51.510;11.934;2022-10-22T02:46:35;6.33;;;4.17;;
18532;SDS011;9396;51.510;11.934;2022-10-22T02:49:03;5.23;;;4.20;;
18532;SDS011;9396;51.510;11.934;2022-10-22T02:51:31;5.93;;;3.80;;
18532;SDS011;9396;51.510;11.934;2022-10-22T02:53:58;6.30;;;4.27;;
18532;SDS011;9396;51.510;11.934;2022-10-22T02:56:25;4.30;;;3.90;;
18532;SDS011;9396;51.510;11.934;2022-10-22T02:58:51;4.57;;;4.17;;
18532;SDS011;9396;51.510;11.934;2022-10-22T03:01:18;5.53;;;4.20;;
18532;SDS011;9396;51.510;11.934;2022-10-22T03:03:44;8.00;;;4.37;;
18532;SDS011;9396;51.510;11.934;2022-10-22T03:06:11;8.20;;;4.33;;
18532;SDS011;9396;51.510;11.934;2022-10-22T03:08:39;5.13;;;4.43;;
18532;SDS011;9396;51.510;11.934;2022-10-22T03:11:06;5.60;;;4.73;;
18532;SDS011;9396;51.510;11.934;2022-10-22T03:13:33;8.63;;;4.17;;
18532;SDS011;9396;51.510;11.934;2022-10-22T03:15:59;4.43;;;4.03;;
18532;SDS011;9396;51.510;11.934;2022-10-22T03:18:26;4.90;;;4.23;;
18532;SDS011;9396;51.510;11.934;2022-10-22T03:20:58;6.77;;;4.00;;
18532;SDS011;9396;51.510;11.934;2022-10-22T03:23:29;4.80;;;4.30;;
18532;SDS011;9396;51.510;11.934;2022-10-22T03:25:58;7.90;;;4.60;;
18532;SDS011;9396;51.510;11.934;2022-10-22T03:28:26;5.13;;;4.63;;
18532;SDS011;9396;51.510;11.934;2022-10-22T03:30:53;5.37;;;4.63;;
18532;SDS011;9396;51.510;11.934;2022-10-22T03:33:19;6.27;;;4.30;;
18532;SDS011;9396;51.510;11.934;2022-10-22T03:35:46;6.77;;;4.60;;
18532;SDS011;9396;51.510;11.934;2022-10-22T03:38:13;8.10;;;4.23;;
18532;SDS011;9396;51.510;11.934;2022-10-22T03:41:01;7.03;;;3.87;;
18532;SDS011;9396;51.510;11.934;2022-10-22T03:43:28;5.90;;;4.40;;
18532;SDS011;9396;51.510;11.934;2022-10-22T03:45:55;6.03;;;4.10;;
18532;SDS011;9396;51.510;11.934;2022-10-22T03:48:22;7.37;;;4.70;;
18532;SDS011;9396;51.510;11.934;2022-10-22T03:50:48;7.43;;;4.03;;
18532;SDS011;9396;51.510;11.934;2022-10-22T03:53:15;5.13;;;4.63;;
18532;SDS011;9396;51.510;11.934;2022-10-22T03:55:41;5.47;;;4.60;;
18532;SDS011;9396;51.510;11.934;2022-10-22T03:58:09;4.77;;;4.27;;
18532;SDS011;9396;51.510;11.934;2022-10-22T04:00:36;6.07;;;4.80;;
18532;SDS011;9396;51.510;11.934;2022-10-22T04:03:03;4.57;;;4.00;;
18532;SDS011;9396;51.510;11.934;2022-10-22T04:05:30;5.00;;;4.50;;
18532;SDS011;9396;51.510;11.934;2022-10-22T04:07:57;10.93;;;5.53;;
18532;SDS011;9396;51.510;11.934;2022-10-22T04:10:24;6.03;;;4.87;;
18532;SDS011;9396;51.510;11.934;2022-10-22T04:12:51;8.90;;;5.10;;
18532;SDS011;9396;51.510;11.934;2022-10-22T04:15:19;10.07;;;5.50;;
18532;SDS011;9396;51.510;11.934;2022-10-22T04:17:45;6.67;;;5.20;;
18532;SDS011;9396;51.510;11.934;2022-10-22T04:20:12;6.07;;;5.10;;
18532;SDS011;9396;51.510;11.934;2022-10-22T04:22:39;5.27;;;4.70;;
18532;SDS011;9396;51.510;11.934;2022-10-22T04:25:05;7.07;;;5.10;;
18532;SDS011;9396;51.510;11.934;2022-10-22T04:27:33;5.67;;;5.07;;
18532;SDS011;9396;51.510;11.934;2022-10-22T04:30:00;6.67;;;5.17;;
18532;SDS011;9396;51.510;11.934;2022-10-22T04:32:28;7.07;;;5.17;;
18532;SDS011;9396;51.510;11.934;2022-10-22T04:34:54;8.80;;;5.20;;
18532;SDS011;9396;51.510;11.934;2022-10-22T04:37:21;6.13;;;5.53;;
18532;SDS011;9396;51.510;11.934;2022-10-22T04:39:48;7.07;;;5.80;;
18532;SDS011;9396;51.510;11.934;2022-10-22T04:42:14;6.07;;;5.13;;
18532;SDS011;9396;51.510;11.934;2022-10-22T04:44:41;5.50;;;5.00;;
18532;SDS011;9396;51.510;11.934;2022-10-22T04:47:08;7.23;;;4.70;;
18532;SDS011;9396;51.510;11.934;2022-10-22T04:49:35;6.20;;;5.30;;
18532;SDS011;9396;51.510;11.934;2022-10-22T04:52:02;7.13;;;4.43;;
18532;SDS011;9396;51.510;11.934;2022-10-22T04:54:29;8.73;;;5.03;;
18532;SDS011;9396;51.510;11.934;2022-10-22T04:56:55;6.07;;;5.47;;
18532;SDS011;9396;51.510;11.934;2022-10-22T04:59:22;6.00;;;4.63;;
18532;SDS011;9396;51.510;11.934;2022-10-22T05:01:49;6.03;;;5.17;;
18532;SDS011;9396;51.510;11.934;2022-10-22T05:04:16;5.93;;;5.10;;
18532;SDS011;9396;51.510;11.934;2022-10-22T05:06:45;8.80;;;5.67;;
18532;SDS011;9396;51.510;11.934;2022-10-22T05:09:12;7.13;;;5.70;;
18532;SDS011;9396;51.510;11.934;2022-10-22T05:11:41;7.83;;;5.50;;
18532;SDS011;9396;51.510;11.934;2022-10-22T05:14:12;8.57;;;5.60;;
18532;SDS011;9396;51.510;11.934;2022-10-22T05:16:40;7.33;;;4.90;;
18532;SDS011;9396;51.510;11.934;2022-10-22T05:19:07;5.97;;;5.27;;
18532;SDS011;9396;51.510;11.934;2022-10-22T05:21:34;6.40;;;5.10;;
18532;SDS011;9396;51.510;11.934;2022-10-22T05:24:04;9.23;;;6.33;;
18532;SDS011;9396;51.510;11.934;2022-10-22T05:26:31;7.20;;;6.37;;
18532;SDS011;9396;51.510;11.934;2022-10-22T05:28:58;7.57;;;6.00;;
18532;SDS011;9396;51.510;11.934;2022-10-22T05:31:24;9.33;;;5.83;;
18532;SDS011;9396;51.510;11.934;2022-10-22T05:33:52;6.70;;;5.87;;
18532;SDS011;9396;51.510;11.934;2022-10-22T05:36:20;6.73;;;5.50;;
18532;SDS011;9396;51.510;11.934;2022-10-22T05:38:47;6.50;;;5.90;;
18532;SDS011;9396;51.510;11.934;2022-10-22T05:41:17;7.47;;;5.43;;
18532;SDS011;9396;51.510;11.934;2022-10-22T05:43:44;6.20;;;5.60;;
18532;SDS011;9396;51.510;11.934;2022-10-22T05:46:12;6.93;;;6.07;;
18532;SDS011;9396;51.510;11.934;2022-10-22T05:48:40;9.60;;;5.70;;
18532;SDS011;9396;51.510;11.934;2022-10-22T05:51:08;8.57;;;6.33;;
18532;SDS011;9396;51.510;11.934;2022-10-22T05:53:37;9.07;;;7.07;;
18532;SDS011;9396;51.510;11.934;2022-10-22T05:56:06;11.87;;;7.10;;
18532;SDS011;9396;51.510;11.934;2022-10-22T05:58:35;9.60;;;7.17;;
18532;SDS011;9396;51.510;11.934;2022-10-22T06:01:02;8.33;;;7.10;;
18532;SDS011;9396;51.510;11.934;2022-10-22T06:03:30;11.33;;;7.67;;
18532;SDS011;9396;51.510;11.934;2022-10-22T06:05:58;8.10;;;6.70;;
18532;SDS011;9396;51.510;11.934;2022-10-22T06:08:26;7.63;;;6.47;;
18532;SDS011;9396;51.510;11.934;2022-10-22T06:10:54;12.93;;;7.13;;
18532;SDS011;9396;51.510;11.934;2022-10-22T06:13:21;10.17;;;6.33;;
18532;SDS011;9396;51.510;11.934;2022-10-22T06:15:49;7.80;;;6.97;;
18532;SDS011;9396;51.510;11.934;2022-10-22T06:18:17;11.37;;;6.90;;
18532;SDS011;9396;51.510;11.934;2022-10-22T06:20:44;10.00;;;7.10;;
18532;SDS011;9396;51.510;11.934;2022-10-22T06:23:11;11.23;;;7.17;;
18532;SDS011;9396;51.510;11.934;2022-10-22T06:25:38;8.97;;;7.50;;
18532;SDS011;9396;51.510;11.934;2022-10-22T06:28:05;9.20;;;7.53;;
18532;SDS011;9396;51.510;11.934;2022-10-22T06:30:32;11.83;;;8.43;;
18532;SDS011;9396;51.510;11.934;2022-10-22T06:33:00;10.20;;;8.63;;
18532;SDS011;9396;51.510;11.934;2022-10-22T06:35:26;11.47;;;10.23;;
18532;SDS011;9396;51.510;11.934;2022-10-22T06:37:53;13.47;;;9.90;;
18532;SDS011;9396;51.510;11.934;2022-10-22T06:40:20;13.27;;;10.27;;
18532;SDS011;9396;51.510;11.934;2022-10-22T06:42:47;13.70;;;11.17;;
18532;SDS011;9396;51.510;11.934;2022-10-22T06:45:13;18.40;;;11.03;;
18532;SDS011;9396;51.510;11.934;2022-10-22T06:47:40;16.30;;;12.33;;
18532;SDS011;9396;51.510;11.934;2022-10-22T06:50:08;20.23;;;11.53;;
18532;SDS011;9396;51.510;11.934;2022-10-22T06:52:35;20.63;;;11.93;;
18532;SDS011;9396;51.510;11.934;2022-10-22T06:55:02;16.70;;;11.60;;
18532;SDS011;9396;51.510;11.934;2022-10-22T06:57:28;21.20;;;12.60;;
18532;SDS011;9396;51.510;11.934;2022-10-22T06:59:55;18.80;;;11.47;;
18532;SDS011;9396;51.510;11.934;2022-10-22T07:02:22;17.03;;;11.17;;
18532;SDS011;9396;51.510;11.934;2022-10-22T07:04:49;17.57;;;11.90;;
18532;SDS011;9396;51.510;11.934;2022-10-22T07:07:17;20.13;;;11.40;;
18532;SDS011;9396;51.510;11.934;2022-10-22T07:09:43;15.27;;;12.00;;
18532;SDS011;9396;51.510;11.934;2022-10-22T07:12:11;17.73;;;12.33;;
18532;SDS011;9396;51.510;11.934;2022-10-22T07:14:38;23.33;;;12.83;;
18532;SDS011;9396;51.510;11.934;2022-10-22T07:17:05;16.63;;;11.03;;
18532;SDS011;9396;51.510;11.934;2022-10-22T07:19:31;17.07;;;12.40;;
18532;SDS011;9396;51.510;11.934;2022-10-22T07:21:58;15.20;;;11.10;;
18532;SDS011;9396;51.510;11.934;2022-10-22T07:24:26;15.80;;;12.10;;
18532;SDS011;9396;51.510;11.934;2022-10-22T07:26:53;14.50;;;11.47;;
18532;SDS011;9396;51.510;11.934;2022-10-22T07:29:20;21.67;;;12.10;;
18532;SDS011;9396;51.510;11.934;2022-10-22T07:31:46;14.77;;;10.90;;
18532;SDS011;9396;51.510;11.934;2022-10-22T07:34:13;16.00;;;11.33;;
18532;SDS011;9396;51.510;11.934;2022-10-22T07:36:40;14.27;;;10.67;;
18532;SDS011;9396;51.510;11.934;2022-10-22T07:39:07;18.17;;;10.77;;
18532;SDS011;9396;51.510;11.934;2022-10-22T07:41:35;14.30;;;11.27;;
18532;SDS011;9396;51.510;11.934;2022-10-22T07:44:01;15.57;;;10.63;;
18532;SDS011;9396;51.510;11.934;2022-10-22T07:46:28;15.47;;;10.33;;
18532;SDS011;9396;51.510;11.934;2022-10-22T07:48:55;16.10;;;9.83;;
18532;SDS011;9396;51.510;11.934;2022-10-22T07:51:21;12.33;;;9.97;;
18532;SDS011;9396;51.510;11.934;2022-10-22T07:53:48;15.00;;;9.67;;
18532;SDS011;9396;51.510;11.934;2022-10-22T07:56:14;14.67;;;9.53;;
18532;SDS011;9396;51.510;11.934;2022-10-22T07:58:43;16.57;;;9.77;;
18532;SDS011;9396;51.510;11.934;2022-10-22T08:01:10;12.60;;;9.57;;
18532;SDS011;9396;51.510;11.934;2022-10-22T08:03:36;13.33;;;9.77;;
18532;SDS011;9396;51.510;11.934;2022-10-22T08:06:03;11.80;;;8.77;;
18532;SDS011;9396;51.510;11.934;2022-10-22T08:08:30;17.17;;;9.47;;
18532;SDS011;9396;51.510;11.934;2022-10-22T08:10:58;12.10;;;9.13;;
18532;SDS011;9396;51.510;11.934;2022-10-22T08:13:26;11.60;;;8.23;;
18532;SDS011;9396;51.510;11.934;2022-10-22T08:15:55;12.97;;;9.53;;
18532;SDS011;9396;51.510;11.934;2022-10-22T08:18:22;15.67;;;9.03;;
18532;SDS011;9396;51.510;11.934;2022-10-22T08:20:49;17.43;;;10.17;;
18532;SDS011;9396;51.510;11.934;2022-10-22T08:23:16;14.33;;;9.90;;
18532;SDS011;9396;51.510;11.934;2022-10-22T08:25:42;13.30;;;8.80;;
18532;SDS011;9396;51.510;11.934;2022-10-22T08:28:09;15.47;;;9.53;;
18532;SDS011;9396;51.510;11.934;2022-10-22T08:30:36;15.27;;;9.47;;
18532;SDS011;9396;51.510;11.934;2022-10-22T08:33:05;12.40;;;8.80;;
18532;SDS011;9396;51.510;11.934;2022-10-22T08:35:32;15.70;;;7.97;;
18532;SDS011;9396;51.510;11.934;2022-10-22T08:37:58;8.63;;;7.07;;
18532;SDS011;9396;51.510;11.934;2022-10-22T08:40:27;11.23;;;7.77;;
18532;SDS011;9396;51.510;11.934;2022-10-22T08:46:01;13.27;;;7.30;;
18532;SDS011;9396;51.510;11.934;2022-10-22T08:48:42;9.83;;;7.00;;
18532;SDS011;9396;51.510;11.934;2022-10-22T08:51:11;10.60;;;6.97;;
18532;SDS011;9396;51.510;11.934;2022-10-22T08:53:43;9.37;;;6.53;;
18532;SDS011;9396;51.510;11.934;2022-10-22T08:56:20;8.43;;;6.20;;
18532;SDS011;9396;51.510;11.934;2022-10-22T08:58:49;7.37;;;5.90;;
18532;SDS011;9396;51.510;11.934;2022-10-22T09:01:23;9.97;;;5.57;;
18532;SDS011;9396;51.510;11.934;2022-10-22T09:03:59;7.17;;;6.20;;
18532;SDS011;9396;51.510;11.934;2022-10-22T09:06:34;9.83;;;5.80;;
18532;SDS011;9396;51.510;11.934;2022-10-22T09:09:04;9.03;;;5.40;;
18532;SDS011;9396;51.510;11.934;2022-10-22T09:11:38;6.40;;;5.20;;
18532;SDS011;9396;51.510;11.934;2022-10-22T09:14:08;5.70;;;4.20;;
18532;SDS011;9396;51.510;11.934;2022-10-22T09:16:42;6.27;;;3.10;;
18532;SDS011;9396;51.510;11.934;2022-10-22T09:19:27;7.80;;;3.63;;
18532;SDS011;9396;51.510;11.934;2022-10-22T09:22:01;5.27;;;3.53;;
18532;SDS011;9396;51.510;11.934;2022-10-22T09:24:41;4.97;;;3.47;;
18532;SDS011;9396;51.510;11.934;2022-10-22T09:27:11;7.67;;;3.67;;
18532;SDS011;9396;51.510;11.934;2022-10-22T09:29:39;3.87;;;3.47;;
18532;SDS011;9396;51.510;11.934;2022-10-22T09:32:06;5.93;;;3.13;;
18532;SDS011;9396;51.510;11.934;2022-10-22T09:34:34;3.50;;;2.90;;
18532;SDS011;9396;51.510;11.934;2022-10-22T09:37:01;6.40;;;3.03;;
18532;SDS011;9396;51.510;11.934;2022-10-22T09:39:31;5.90;;;2.87;;
18532;SDS011;9396;51.510;11.934;2022-10-22T09:41:59;5.53;;;3.40;;
18532;SDS011;9396;51.510;11.934;2022-10-22T09:44:26;4.07;;;2.93;;
18532;SDS011;9396;51.510;11.934;2022-10-22T09:46:53;6.17;;;2.63;;
18532;SDS011;9396;51.510;11.934;2022-10-22T09:49:20;5.20;;;2.73;;
18532;SDS011;9396;51.510;11.934;2022-10-22T09:51:51;4.03;;;2.53;;
18532;SDS011;9396;51.510;11.934;2022-10-22T09:54:20;4.37;;;2.40;;
18532;SDS011;9396;51.510;11.934;2022-10-22T09:56:52;6.30;;;2.07;;
18532;SDS011;9396;51.510;11.934;2022-10-22T09:59:24;2.57;;;2.30;;
18532;SDS011;9396;51.510;11.934;2022-10-22T10:01:57;5.20;;;2.03;;
18532;SDS011;9396;51.510;11.934;2022-10-22T10:04:26;4.53;;;2.27;;
18532;SDS011;9396;51.510;11.934;2022-10-22T10:06:54;3.03;;;1.97;;
18532;SDS011;9396;51.510;11.934;2022-10-22T10:09:22;4.73;;;2.30;;
18532;SDS011;9396;51.510;11.934;2022-10-22T10:11:53;3.40;;;2.00;;
18532;SDS011;9396;51.510;11.934;2022-10-22T10:14:27;3.90;;;2.07;;
18532;SDS011;9396;51.510;11.934;2022-10-22T10:17:02;4.67;;;2.20;;
18532;SDS011;9396;51.510;11.934;2022-10-22T10:19:42;2.20;;;2.00;;
18532;SDS011;9396;51.510;11.934;2022-10-22T10:22:26;3.40;;;2.10;;
18532;SDS011;9396;51.510;11.934;2022-10-22T10:25:17;2.80;;;2.43;;
18532;SDS011;9396;51.510;11.934;2022-10-22T10:28:03;6.10;;;2.50;;
18532;SDS011;9396;51.510;11.934;2022-10-22T10:30:42;4.27;;;2.00;;
18532;SDS011;9396;51.510;11.934;2022-10-22T10:33:19;3.13;;;2.33;;
18532;SDS011;9396;51.510;11.934;2022-10-22T10:35:53;2.50;;;1.80;;
18532;SDS011;9396;51.510;11.934;2022-10-22T10:38:36;7.37;;;1.80;;
18532;SDS011;9396;51.510;11.934;2022-10-22T10:41:16;2.50;;;2.00;;
18532;SDS011;9396;51.510;11.934;2022-10-22T10:43:51;5.40;;;1.87;;
18532;SDS011;9396;51.510;11.934;2022-10-22T10:46:30;4.23;;;2.13;;
18532;SDS011;9396;51.510;11.934;2022-10-22T10:49:07;3.27;;;2.00;;
18532;SDS011;9396;51.510;11.934;2022-10-22T10:51:41;3.77;;;1.70;;
18532;SDS011;9396;51.510;11.934;2022-10-22T10:54:24;2.13;;;1.50;;
18532;SDS011;9396;51.510;11.934;2022-10-22T10:56:57;3.43;;;1.60;;
18532;SDS011;9396;51.510;11.934;2022-10-22T10:59:31;2.10;;;1.70;;
18532;SDS011;9396;51.510;11.934;2022-10-22T11:05:27;2.90;;;1.33;;
18532;SDS011;9396;51.510;11.934;2022-10-22T11:08:00;2.50;;;1.43;;
18532;SDS011;9396;51.510;11.934;2022-10-22T11:10:32;1.93;;;1.50;;
18532;SDS011;9396;51.510;11.934;2022-10-22T11:13:05;4.17;;;1.60;;
18532;SDS011;9396;51.510;11.934;2022-10-22T11:15:40;1.83;;;1.13;;
18532;SDS011;9396;51.510;11.934;2022-10-22T11:18:14;4.87;;;1.30;;
18532;SDS011;9396;51.510;11.934;2022-10-22T11:20:49;2.90;;;1.30;;
18532;SDS011;9396;51.510;11.934;2022-10-22T11:23:24;6.00;;;1.33;;
18532;SDS011;9396;51.510;11.934;2022-10-22T11:25:57;2.03;;;1.73;;
18532;SDS011;9396;51.510;11.934;2022-10-22T11:28:27;2.30;;;1.20;;
18532;SDS011;9396;51.510;11.934;2022-10-22T11:31:00;3.73;;;1.23;;
18532;SDS011;9396;51.510;11.934;2022-10-22T11:33:32;2.17;;;1.10;;
18532;SDS011;9396;51.510;11.934;2022-10-22T11:36:07;1.13;;;1.00;;
18532;SDS011;9396;51.510;11.934;2022-10-22T11:38:35;2.63;;;1.10;;
18532;SDS011;9396;51.510;11.934;2022-10-22T11:41:05;1.90;;;1.30;;
18532;SDS011;9396;51.510;11.934;2022-10-22T11:43:50;3.70;;;1.37;;
18532;SDS011;9396;51.510;11.934;2022-10-22T11:46:25;2.03;;;1.20;;
18532;SDS011;9396;51.510;11.934;2022-10-22T11:49:00;1.37;;;1.00;;
18532;SDS011;9396;51.510;11.934;2022-10-22T11:51:33;2.70;;;1.30;;
18532;SDS011;9396;51.510;11.934;2022-10-22T11:54:02;2.73;;;1.10;;
18532;SDS011;9396;51.510;11.934;2022-10-22T11:57:10;2.53;;;0.93;;
18532;SDS011;9396;51.510;11.934;2022-10-22T11:59:46;3.67;;;1.17;;
18532;SDS011;9396;51.510;11.934;2022-10-22T12:02:28;1.77;;;1.10;;
18532;SDS011;9396;51.510;11.934;2022-10-22T12:05:16;1.50;;;0.97;;
18532;SDS011;9396;51.510;11.934;2022-10-22T12:08:18;2.40;;;1.00;;
18532;SDS011;9396;51.510;11.934;2022-10-22T12:10:49;2.50;;;1.20;;
18532;SDS011;9396;51.510;11.934;2022-10-22T12:13:24;3.50;;;1.20;;
18532;SDS011;9396;51.510;11.934;2022-10-22T12:15:53;1.97;;;1.17;;
18532;SDS011;9396;51.510;11.934;2022-10-22T12:18:23;1.43;;;1.00;;
18532;SDS011;9396;51.510;11.934;2022-10-22T12:20:52;1.50;;;1.07;;
18532;SDS011;9396;51.510;11.934;2022-10-22T12:23:20;1.33;;;1.07;;
18532;SDS011;9396;51.510;11.934;2022-10-22T12:25:51;2.43;;;1.40;;
18532;SDS011;9396;51.510;11.934;2022-10-22T12:28:18;1.80;;;1.00;;
18532;SDS011;9396;51.510;11.934;2022-10-22T12:30:46;2.83;;;1.50;;
18532;SDS011;9396;51.510;11.934;2022-10-22T12:33:17;2.63;;;1.30;;
18532;SDS011;9396;51.510;11.934;2022-10-22T12:35:45;3.30;;;1.00;;
18532;SDS011;9396;51.510;11.934;2022-10-22T12:38:17;3.77;;;0.93;;
18532;SDS011;9396;51.510;11.934;2022-10-22T12:40:45;1.73;;;1.20;;
18532;SDS011;9396;51.510;11.934;2022-10-22T12:43:13;2.70;;;1.10;;
18532;SDS011;9396;51.510;11.934;2022-10-22T12:45:41;1.67;;;1.00;;
18532;SDS011;9396;51.510;11.934;2022-10-22T12:48:14;1.77;;;1.17;;
18532;SDS011;9396;51.510;11.934;2022-10-22T12:50:45;3.17;;;1.27;;
18532;SDS011;9396;51.510;11.934;2022-10-22T12:53:14;3.53;;;1.20;;
18532;SDS011;9396;51.510;11.934;2022-10-22T12:55:44;1.90;;;0.93;;
18532;SDS011;9396;51.510;11.934;2022-10-22T12:58:13;3.07;;;1.67;;
18532;SDS011;9396;51.510;11.934;2022-10-22T13:00:43;2.50;;;1.10;;
18532;SDS011;9396;51.510;11.934;2022-10-22T13:03:16;1.70;;;0.90;;
18532;SDS011;9396;51.510;11.934;2022-10-22T13:05:52;1.83;;;0.90;;
18532;SDS011;9396;51.510;11.934;2022-10-22T13:08:20;2.00;;;1.20;;
18532;SDS011;9396;51.510;11.934;2022-10-22T13:10:48;1.00;;;0.90;;
18532;SDS011;9396;51.510;11.934;2022-10-22T13:13:29;2.13;;;1.17;;
18532;SDS011;9396;51.510;11.934;2022-10-22T13:16:11;1.80;;;1.03;;
18532;SDS011;9396;51.510;11.934;2022-10-22T13:18:43;3.77;;;1.20;;
18532;SDS011;9396;51.510;11.934;2022-10-22T13:21:20;6.37;;;1.33;;
18532;SDS011;9396;51.510;11.934;2022-10-22T13:23:52;4.00;;;1.30;;
18532;SDS011;9396;51.510;11.934;2022-10-22T13:26:21;1.87;;;1.33;;
18532;SDS011;9396;51.510;11.934;2022-10-22T13:28:50;4.80;;;1.40;;
18532;SDS011;9396;51.510;11.934;2022-10-22T13:31:20;1.70;;;1.00;;
18532;SDS011;9396;51.510;11.934;2022-10-22T13:33:52;4.13;;;1.33;;
18532;SDS011;9396;51.510;11.934;2022-10-22T13:36:21;3.40;;;1.27;;
18532;SDS011;9396;51.510;11.934;2022-10-22T13:38:48;1.27;;;1.10;;
18532;SDS011;9396;51.510;11.934;2022-10-22T13:41:19;3.53;;;1.40;;
18532;SDS011;9396;51.510;11.934;2022-10-22T13:43:47;2.23;;;1.20;;
18532;SDS011;9396;51.510;11.934;2022-10-22T13:46:15;3.53;;;1.37;;
18532;SDS011;9396;51.510;11.934;2022-10-22T13:48:42;1.97;;;1.30;;
18532;SDS011;9396;51.510;11.934;2022-10-22T13:51:13;1.80;;;1.00;;
18532;SDS011;9396;51.510;11.934;2022-10-22T13:53:41;2.37;;;1.20;;
18532;SDS011;9396;51.510;11.934;2022-10-22T13:56:12;3.90;;;1.00;;
18532;SDS011;9396;51.510;11.934;2022-10-22T13:58:40;1.50;;;1.20;;
18532;SDS011;9396;51.510;11.934;2022-10-22T14:01:09;1.73;;;1.23;;
18532;SDS011;9396;51.510;11.934;2022-10-22T14:03:42;4.70;;;1.43;;
18532;SDS011;9396;51.510;11.934;2022-10-22T14:06:10;2.10;;;1.33;;
18532;SDS011;9396;51.510;11.934;2022-10-22T14:08:41;4.33;;;1.93;;
18532;SDS011;9396;51.510;11.934;2022-10-22T14:11:09;3.10;;;1.87;;
18532;SDS011;9396;51.510;11.934;2022-10-22T14:13:37;5.03;;;2.00;;
18532;SDS011;9396;51.510;11.934;2022-10-22T14:16:04;3.00;;;1.47;;
18532;SDS011;9396;51.510;11.934;2022-10-22T14:18:32;2.27;;;1.20;;
18532;SDS011;9396;51.510;11.934;2022-10-22T14:21:01;3.77;;;1.43;;
18532;SDS011;9396;51.510;11.934;2022-10-22T14:23:32;5.83;;;1.67;;
18532;SDS011;9396;51.510;11.934;2022-10-22T14:26:00;2.13;;;1.27;;
18532;SDS011;9396;51.510;11.934;2022-10-22T14:28:28;6.63;;;2.00;;
18532;SDS011;9396;51.510;11.934;2022-10-22T14:30:54;3.37;;;1.87;;
18532;SDS011;9396;51.510;11.934;2022-10-22T14:33:22;3.67;;;1.50;;
18532;SDS011;9396;51.510;11.934;2022-10-22T14:35:50;5.03;;;1.40;;
18532;SDS011;9396;51.510;11.934;2022-10-22T14:38:17;4.30;;;1.80;;
18532;SDS011;9396;51.510;11.934;2022-10-22T14:40:45;2.60;;;1.50;;
18532;SDS011;9396;51.510;11.934;2022-10-22T14:43:13;2.33;;;1.50;;
18532;SDS011;9396;51.510;11.934;2022-10-22T14:45:45;3.17;;;1.93;;
18532;SDS011;9396;51.510;11.934;2022-10-22T14:48:12;4.27;;;1.77;;
18532;SDS011;9396;51.510;11.934;2022-10-22T14:50:40;2.97;;;1.70;;
18532;SDS011;9396;51.510;11.934;2022-10-22T14:53:06;7.63;;;1.80;;
18532;SDS011;9396;51.510;11.934;2022-10-22T14:55:33;2.60;;;1.50;;
18532;SDS011;9396;51.510;11.934;2022-10-22T14:58:01;3.00;;;1.40;;
18532;SDS011;9396;51.510;11.934;2022-10-22T15:00:28;3.13;;;1.60;;
18532;SDS011;9396;51.510;11.934;2022-10-22T15:02:54;6.23;;;1.90;;
18532;SDS011;9396;51.510;11.934;2022-10-22T15:05:23;2.07;;;1.33;;
18532;SDS011;9396;51.510;11.934;2022-10-22T15:07:50;1.73;;;1.27;;
18532;SDS011;9396;51.510;11.934;2022-10-22T15:10:17;2.53;;;1.50;;